Ocean Fortune — A8PV3 — position and weather

sailwx.info

Track history (hours):
 
Tides and Currents Weather Stations Pressure Air Temp Water Temp Dewpoint Dewpoint Depression Visibility Wind Speed Wind Dir Waves Ship Positions

Ocean Fortune

Last reported at 2018-May-21 12:11 UTC. Time now 2018-May-22 19:53 UTC.
Position N 47°01' W 007°18'.

Length 115 m; draft 5.7 m.

Type: Cargo ship. MMSI: 636013841.

Date/timePositionNaut miles runAvg speedWind from/ knotsBaromVisibWave heightAir tempDewpointWater temp
2018-May-21 12:11N 47°01' W 007°18'211.3
2018-May-21 12:00N 47°03' W 007°16'611.4
2018-May-21 11:30N 47°08' W 007°12'611.6
2018-May-21 11:00N 47°13' W 007°08'611.3
2018-May-21 10:30N 47°18' W 007°04'611.3
2018-May-21 10:00N 47°23' W 006°60'510.9
2018-May-21 09:30N 47°28' W 006°56'510.9
2018-May-21 09:00N 47°32' W 006°52'611.0
2018-May-21 08:30N 47°37' W 006°48'510.6
2018-May-21 08:00N 47°42' W 006°44'510.3
2018-May-21 07:30N 47°46' W 006°40'510.3
2018-May-21 07:00N 47°51' W 006°37'510.1
2018-May-21 06:30N 47°55' W 006°33'510.1
2018-May-21 06:00N 47°60' W 006°30'510.3
2018-May-21 05:30N 48°04' W 006°26'510.3
2018-May-21 05:00N 48°09' W 006°22'510.6
2018-May-21 04:30N 48°14' W 006°19'510.7
2018-May-21 04:00N 48°18' W 006°15'510.1
2018-May-21 03:30N 48°23' W 006°11'510.5
2018-May-21 03:00N 48°27' W 006°07'610.8
2018-May-21 02:30N 48°32' W 006°03'611.1
2018-May-21 02:00N 48°37' W 005°60'611.2
2018-May-21 01:30N 48°42' W 005°56'611.3
2018-May-21 01:00N 48°47' W 005°51'611.2
2018-May-21 00:30N 48°52' W 005°47'510.6
2018-May-21 00:00N 48°55' W 005°40'510.5
2018-May-20 23:30N 48°57' W 005°33'710.1
2018-May-20 22:46N 49°01' W 005°23'3 9.6
2018-May-20 22:27N 49°02' W 005°20'4 9.5
2018-May-20 22:00N 49°05' W 005°14'5 9.2
2018-May-20 21:29N 49°07' W 005°08'4 8.7
2018-May-20 21:00N 49°09' W 005°02'4 8.7
2018-May-20 20:30N 49°11' W 004°56'4 8.7
2018-May-20 20:00N 49°13' W 004°51'4 8.3
2018-May-20 19:30N 49°16' W 004°45'4 8.5
2018-May-20 19:00N 49°18' W 004°39'5 9.6
2018-May-20 18:30N 49°20' W 004°33'510.4
2018-May-20 18:00N 49°23' W 004°26'510.8
2018-May-20 17:30N 49°26' W 004°19'611.2
2018-May-20 16:59N 49°29' W 004°11'611.7
2018-May-20 16:30N 49°31' W 004°04'1812.1
2018-May-20 14:59N 49°41' W 003°39'712.0
2018-May-20 14:26N 49°44' W 003°31'611.6
2018-May-20 13:53N 49°47' W 003°22'511.2
2018-May-20 13:27N 49°50' W 003°16'510.7
2018-May-20 13:00N 49°52' W 003°09'510.2
2018-May-20 12:30N 49°55' W 003°02'5 9.7
2018-May-20 12:00N 49°57' W 002°56'5 9.3
2018-May-20 11:30N 49°59' W 002°49'31 9.4
2018-May-20 08:11N 50°08' W 002°03'211.2
2018-May-20 08:00N 50°08' W 001°60'611.9
2018-May-20 07:31N 50°10' W 001°51'612.8
2018-May-20 07:00N 50°12' W 001°41'713.3
2018-May-20 06:31N 50°14' W 001°32'713.8
2018-May-20 06:00N 50°16' W 001°21'714.1
2018-May-20 05:29N 50°18' W 001°10'714.5
2018-May-20 05:01N 50°20' W 000°60'913.8
2018-May-20 04:22N 50°23' W 000°46'512.7
2018-May-20 04:01N 50°24' W 000°40'1012.4
2018-May-20 03:14N 50°27' W 000°25'311.7
2018-May-20 03:01N 50°28' W 000°21'611.3
2018-May-20 02:30N 50°29' W 000°13'510.8
2018-May-20 02:00N 50°31' W 000°05'510.0
2018-May-20 01:30N 50°32' E 000°03'5 9.4
2018-May-20 01:01N 50°34' E 000°10'4 8.9
2018-May-20 00:30N 50°35' E 000°17'4 8.5
2018-May-20 00:00N 50°36' E 000°23'4 8.6
2018-May-19 23:29N 50°38' E 000°30'4 9.1
2018-May-19 23:00N 50°39' E 000°36'510.0
2018-May-19 22:29N 50°42' E 000°43'511.0
2018-May-19 22:01N 50°45' E 000°49'611.8
2018-May-19 21:30N 50°49' E 000°57'1812.5
2018-May-19 20:03N 51°00' E 001°20'112.2
2018-May-19 20:00N 51°00' E 001°20'612.1
2018-May-19 19:30N 51°04' E 001°28'611.1
2018-May-19 19:01N 51°08' E 001°35'510.1
2018-May-19 18:31N 51°11' E 001°41'5 9.7
2018-May-19 18:00N 51°14' E 001°46'5 9.2
2018-May-19 17:31N 51°18' E 001°51'5 9.0
2018-May-19 17:01N 51°22' E 001°55'4 8.6
2018-May-19 16:30N 51°25' E 001°59'4 8.7
2018-May-19 16:00N 51°29' E 002°03'5 9.0
2018-May-19 15:29N 51°32' E 002°08'5 9.3
2018-May-19 15:00N 51°36' E 002°12'5 9.8
2018-May-19 14:29N 51°40' E 002°17'510.4
2018-May-19 14:00N 51°44' E 002°22'611.0
2018-May-19 13:26N 51°48' E 002°29'5412.2
2018-May-19 08:59N 52°39' E 003°02'610.8
2018-May-19 08:28N 52°44' E 003°06'910.3
2018-May-19 07:37N 52°52' E 003°12'385 8.8
2018-May-17 11:57N 57°54' E 010°12'4 8.3
2018-May-17 11:30N 57°55' E 010°19'4 8.3
2018-May-17 11:00N 57°56' E 010°26'4 7.5
2018-May-17 10:31N 57°56' E 010°33'4 7.3
2018-May-17 10:01N 57°55' E 010°40'4 7.4
2018-May-17 09:30N 57°53' E 010°46'4 7.4
2018-May-17 09:00N 57°51' E 010°52'4 7.1
2018-May-17 08:31N 57°49' E 010°56'4 7.2
2018-May-17 08:00N 57°45' E 010°59'4 7.3
2018-May-17 07:30N 57°42' E 011°02'4 7.4
2018-May-17 07:01N 57°39' E 011°06'4 7.3
2018-May-17 06:30N 57°36' E 011°10'4 7.3
2018-May-17 06:01N 57°34' E 011°15'4 7.3
2018-May-17 05:30N 57°31' E 011°20'4 7.3
2018-May-17 05:01N 57°28' E 011°25'3 6.9
2018-May-17 04:30N 57°25' E 011°27'4 7.1
2018-May-17 04:01N 57°22' E 011°30'4 7.4
2018-May-17 03:30N 57°18' E 011°32'4 7.6
2018-May-17 03:00N 57°15' E 011°34'4 7.7
2018-May-17 02:31N 57°11' E 011°37'4 7.9
2018-May-17 02:00N 57°08' E 011°39'4 8.0
2018-May-17 01:30N 57°04' E 011°42'4 7.9
2018-May-17 01:01N 57°00' E 011°44'4 7.8
2018-May-17 00:30N 56°56' E 011°47'4 7.8
2018-May-17 00:01N 56°53' E 011°49'4 7.9
2018-May-16 23:31N 56°49' E 011°51'4 7.8
2018-May-16 23:00N 56°45' E 011°54'4 7.9
2018-May-16 22:30N 56°41' E 011°56'4 7.9
2018-May-16 22:00N 56°38' E 011°57'4 8.0
2018-May-16 21:31N 56°34' E 011°59'4 8.0
2018-May-16 21:01N 56°30' E 012°00'4 8.0
2018-May-16 20:30N 56°26' E 012°02'4 7.5
2018-May-16 20:00N 56°22' E 012°03'3 7.0
2018-May-16 19:31N 56°19' E 012°05'4 6.7
2018-May-16 18:55N 56°16' E 012°10'5 7.1
2018-May-16 18:16N 56°14' E 012°17'2 7.4
2018-May-16 18:01N 56°13' E 012°20'7 7.2
2018-May-16 17:05N 56°09' E 012°30'1 7.5
2018-May-16 17:00N 56°08' E 012°30'4 7.5
2018-May-16 16:31N 56°06' E 012°35'4 7.7
2018-May-16 16:00N 56°03' E 012°39'5 9.1
2018-May-16 15:30N 55°59' E 012°42'4 9.0
2018-May-16 15:01N 55°54' E 012°45'5 9.1
2018-May-16 14:30N 55°50' E 012°45'5 9.6
2018-May-16 14:01N 55°45' E 012°42'5 9.3
2018-May-16 13:31N 55°41' E 012°41'4 8.7
2018-May-16 13:01N 55°36' E 012°42'5 9.2
2018-May-16 12:30N 55°32' E 012°43'5 9.7
2018-May-16 12:01N 55°27' E 012°42'5 9.9
2018-May-16 11:31N 55°22' E 012°40'4 8.9
2018-May-16 11:00N 55°18' E 012°44'5 9.9
2018-May-16 10:28N 55°16' E 012°52'3910.1
2018-May-16 06:34N 55°14' E 014°01'110.2
2018-May-16 06:29N 55°14' E 014°03'510.2
2018-May-16 06:00N 55°14' E 014°11'5 9.3
2018-May-16 05:31N 55°16' E 014°19'510.3
2018-May-16 05:00N 55°20' E 014°24'510.3
2018-May-16 04:30N 55°24' E 014°30'510.3
2018-May-16 04:00N 55°27' E 014°37'510.2
2018-May-16 03:30N 55°30' E 014°44'510.1
2018-May-16 03:00N 55°33' E 014°52'510.3
2018-May-16 02:30N 55°35' E 014°60'510.3
2018-May-16 02:00N 55°38' E 015°08'510.1
2018-May-16 01:30N 55°40' E 015°16'610.1
2018-May-16 00:56N 55°43' E 015°25'510.3
2018-May-16 00:30N 55°45' E 015°32'510.3
2018-May-16 00:00N 55°48' E 015°39'710.2
2018-May-15 23:21N 55°51' E 015°50'410.2
2018-May-15 23:00N 55°53' E 015°55'710.2
2018-May-15 22:17N 55°56' E 016°07'310.1
2018-May-15 22:00N 55°58' E 016°11'510.1
2018-May-15 21:30N 56°00' E 016°19'30210.5
2018-May-14 16:39N 59°35' E 022°58'211.2
2018-May-14 16:31N 59°36' E 023°01'611.2
2018-May-14 16:00N 59°37' E 023°12'611.3
2018-May-14 15:31N 59°39' E 023°23'611.1
2018-May-14 15:00N 59°40' E 023°33'611.1
2018-May-14 14:31N 59°42' E 023°44'611.2
2018-May-14 13:59N 59°44' E 023°55'511.1
2018-May-14 13:30N 59°45' E 024°05'611.3
2018-May-14 13:00N 59°47' E 024°16'711.2
2018-May-14 12:25N 59°49' E 024°28'511.1
2018-May-14 12:00N 59°49' E 024°37'510.9
2018-May-14 11:31N 59°50' E 024°48'510.8
2018-May-14 11:00N 59°51' E 024°59'511.0
2018-May-14 10:31N 59°52' E 025°09'510.9
2018-May-14 10:01N 59°53' E 025°20'1110.7
2018-May-14 08:57N 59°55' E 025°42'610.9
2018-May-14 08:24N 59°57' E 025°53'710.8
2018-May-14 07:42N 59°59' E 026°08'313.6
2018-May-14 07:28N 59°60' E 026°14'5 9.8
2018-May-14 06:58N 60°00' E 026°24'510.9
2018-May-14 06:31N 60°01' E 026°34'510.9
2018-May-14 06:01N 60°01' E 026°45'611.0
2018-May-14 05:30N 59°60' E 026°56'510.2
2018-May-14 04:59N 60°01' E 027°06'510.8
2018-May-14 04:31N 60°03' E 027°15'610.9
2018-May-14 04:00N 60°06' E 027°25'511.0
2018-May-14 03:30N 60°09' E 027°34'611.0
2018-May-14 03:00N 60°12' E 027°43'510.7
2018-May-14 02:30N 60°11' E 027°54'611.0
2018-May-14 02:00N 60°10' E 028°05'610.9
2018-May-14 01:30N 60°08' E 028°16'511.0
2018-May-14 01:00N 60°05' E 028°24'510.8
2018-May-14 00:30N 60°03' E 028°34'611.1
2018-May-14 00:00N 60°03' E 028°45'611.0
2018-May-13 23:30N 60°03' E 028°57'611.3
2018-May-13 23:00N 60°02' E 029°08'611.5
2018-May-13 22:30N 60°02' E 029°19'5 8.8
2018-May-13 21:54N 60°02' E 029°30'410.9
2018-May-13 21:30N 60°00' E 029°38'510.3
2018-May-13 20:58N 59°58' E 029°48'5 9.9
2018-May-13 20:30N 59°56' E 029°57'5 9.7
2018-May-13 20:00N 59°54' E 030°05'3 6.8
2018-May-13 19:30N 59°53' E 030°12'1 1.2
2018-May-13 18:59N 59°54' E 030°13'0 0.0
2018-May-13 18:29N 59°54' E 030°13'0 0.0
2018-May-13 17:58N 59°54' E 030°13'0 0.0
2018-May-13 17:28N 59°54' E 030°13'0 0.0
2018-May-13 16:59N 59°54' E 030°13'0 0.0
2018-May-13 16:28N 59°54' E 030°13'0 0.0
2018-May-13 15:58N 59°54' E 030°13'0 0.0
2018-May-13 15:28N 59°54' E 030°13'0 0.0
2018-May-13 14:58N 59°54' E 030°13'0 0.0
2018-May-13 14:28N 59°54' E 030°13'0 0.0
2018-May-13 13:58N 59°54' E 030°13'0 0.0
2018-May-13 13:28N 59°54' E 030°13'0 0.0
2018-May-13 12:58N 59°54' E 030°13'0 0.0
2018-May-13 12:28N 59°54' E 030°13'0 0.0
2018-May-13 11:58N 59°54' E 030°13'0 0.0
2018-May-13 11:28N 59°54' E 030°13'0 0.0
2018-May-13 10:58N 59°54' E 030°13'0 0.0
2018-May-13 10:28N 59°54' E 030°13'0 0.0
2018-May-13 09:59N 59°54' E 030°13'0 0.0
2018-May-13 09:28N 59°54' E 030°13'0 0.0
2018-May-13 08:58N 59°54' E 030°13'0 0.0
2018-May-13 08:28N 59°54' E 030°13'0 0.0
2018-May-13 07:58N 59°54' E 030°13'0 0.0
2018-May-13 07:28N 59°54' E 030°13'0 0.0
2018-May-13 06:55N 59°54' E 030°13'0 0.0
2018-May-13 06:28N 59°54' E 030°13'0 0.0
2018-May-13 05:58N 59°54' E 030°13'0 0.0
2018-May-13 05:28N 59°54' E 030°13'0 0.0
2018-May-13 04:58N 59°54' E 030°13'0 0.0
2018-May-13 04:28N 59°54' E 030°13'0 0.0
2018-May-13 03:58N 59°54' E 030°13'0 0.0
2018-May-13 03:28N 59°54' E 030°13'0 0.0
2018-May-13 02:58N 59°54' E 030°13'0 0.0
2018-May-13 02:28N 59°54' E 030°13'0 0.0
2018-May-13 01:58N 59°54' E 030°13'0 0.0
2018-May-13 01:28N 59°54' E 030°13'0 0.0
2018-May-13 00:58N 59°54' E 030°13'0 0.0
2018-May-13 00:28N 59°54' E 030°13'0 0.0
2018-May-12 23:58N 59°54' E 030°13'0 0.0
2018-May-12 23:28N 59°54' E 030°13'0 0.0
2018-May-12 22:58N 59°54' E 030°13'0 0.0
2018-May-12 22:25N 59°54' E 030°13'0 0.0
2018-May-12 21:58N 59°54' E 030°13'0 0.0
2018-May-12 21:28N 59°54' E 030°13'0 0.0
2018-May-12 20:58N 59°54' E 030°13'0 0.0
2018-May-12 20:28N 59°54' E 030°13'0 0.0
2018-May-12 19:58N 59°54' E 030°13'0 0.0
2018-May-12 19:28N 59°54' E 030°13'0 0.0
2018-May-12 18:58N 59°54' E 030°13'0 0.0
2018-May-12 18:29N 59°54' E 030°13'0 0.0
2018-May-12 17:55N 59°54' E 030°13'0 0.0
2018-May-12 17:28N 59°54' E 030°13'0 0.0
2018-May-12 16:55N 59°54' E 030°13'0 0.0
2018-May-12 16:28N 59°54' E 030°13'0 0.0
2018-May-12 15:58N 59°54' E 030°13'0 0.0
2018-May-12 15:28N 59°54' E 030°13'0 0.0
2018-May-12 14:58N 59°54' E 030°13'0 0.0
2018-May-12 14:28N 59°54' E 030°13'0 0.0
2018-May-12 13:58N 59°54' E 030°13'0 0.0
2018-May-12 13:28N 59°54' E 030°13'0 0.0
2018-May-12 12:58N 59°54' E 030°13'0 0.0
2018-May-12 12:28N 59°54' E 030°13'0 0.0
2018-May-12 11:58N 59°54' E 030°13'0 0.0
2018-May-12 11:28N 59°54' E 030°13'0 0.0
2018-May-12 10:52N 59°54' E 030°13'0 0.0
2018-May-12 10:28N 59°54' E 030°13'0 0.0
2018-May-12 09:58N 59°54' E 030°13'0 0.0
2018-May-12 09:29N 59°54' E 030°13'0 0.0
2018-May-12 08:59N 59°54' E 030°13'0 0.0
2018-May-12 08:28N 59°54' E 030°13'0 0.0
2018-May-12 07:58N 59°54' E 030°13'0 0.0
2018-May-12 07:28N 59°54' E 030°13'0 0.0
2018-May-12 06:58N 59°54' E 030°13'0 0.0
2018-May-12 06:22N 59°54' E 030°13'0 0.0
2018-May-12 05:59N 59°54' E 030°13'0 0.0
2018-May-12 05:26N 59°54' E 030°13'0 0.0
2018-May-12 04:56N 59°54' E 030°13'0 0.0
2018-May-12 04:28N 59°54' E 030°13'0 0.0
2018-May-12 03:46N 59°54' E 030°13'0 0.0
2018-May-12 03:28N 59°54' E 030°13'0 0.0
2018-May-12 02:55N 59°54' E 030°13'0 0.0
2018-May-12 02:27N 59°54' E 030°13'0 0.0
2018-May-12 01:55N 59°54' E 030°13'0 0.0
2018-May-12 01:25N 59°54' E 030°13'0 0.0
2018-May-12 00:58N 59°54' E 030°13'0 0.0
2018-May-12 00:28N 59°54' E 030°13'0 0.0
2018-May-11 23:58N 59°54' E 030°13'0 0.0
2018-May-11 23:28N 59°54' E 030°13'0 0.0
2018-May-11 22:58N 59°54' E 030°13'0 0.0
2018-May-11 22:28N 59°54' E 030°13'0 0.0
2018-May-11 21:58N 59°54' E 030°13'0 0.0
2018-May-11 21:28N 59°54' E 030°13'0 0.0
2018-May-11 20:58N 59°54' E 030°13'0 0.0
2018-May-11 20:28N 59°54' E 030°13'0 0.0
2018-May-11 19:58N 59°54' E 030°13'0 0.0
2018-May-11 19:28N 59°54' E 030°13'0 0.0
2018-May-11 18:58N 59°54' E 030°13'0 0.0
2018-May-11 18:28N 59°54' E 030°13'0 0.0
2018-May-11 17:59N 59°54' E 030°13'0 0.0
2018-May-11 17:28N 59°54' E 030°13'0 0.0
2018-May-11 16:58N 59°54' E 030°13'0 0.0
2018-May-11 16:19N 59°54' E 030°13'0 0.0
2018-May-11 15:59N 59°54' E 030°13'0 0.0
2018-May-11 15:29N 59°54' E 030°13'0 0.0
2018-May-11 14:58N 59°54' E 030°13'0 0.0
2018-May-11 14:25N 59°54' E 030°13'0 0.0
2018-May-11 13:58N 59°54' E 030°13'0 0.0
2018-May-11 13:28N 59°54' E 030°13'0 0.0
2018-May-11 12:52N 59°54' E 030°13'0 0.0
2018-May-11 12:28N 59°54' E 030°13'  
Track history (hours):
 
Tides and Currents Weather Stations Pressure Air Temp Water Temp Dewpoint Dewpoint Depression Visibility Wind Speed Wind Dir Waves Ship Positions

Ocean Fortune

Last reported at 2018-May-21 12:11 UTC. Time now 2018-May-22 19:53 UTC.
Position N 47°01' W 007°18'.

Length 115 m; draft 5.7 m.

Type: Cargo ship. MMSI: 636013841.

Date/timePositionNaut miles runAvg speedWind from/ knotsBaromVisibWave heightAir tempDewpointWater temp
2018-May-21 12:11N 47°01' W 007°18'211.3
2018-May-21 12:00N 47°03' W 007°16'611.4
2018-May-21 11:30N 47°08' W 007°12'611.6
2018-May-21 11:00N 47°13' W 007°08'611.3
2018-May-21 10:30N 47°18' W 007°04'611.3
2018-May-21 10:00N 47°23' W 006°60'510.9
2018-May-21 09:30N 47°28' W 006°56'510.9
2018-May-21 09:00N 47°32' W 006°52'611.0
2018-May-21 08:30N 47°37' W 006°48'510.6
2018-May-21 08:00N 47°42' W 006°44'510.3
2018-May-21 07:30N 47°46' W 006°40'510.3
2018-May-21 07:00N 47°51' W 006°37'510.1
2018-May-21 06:30N 47°55' W 006°33'510.1
2018-May-21 06:00N 47°60' W 006°30'510.3
2018-May-21 05:30N 48°04' W 006°26'510.3
2018-May-21 05:00N 48°09' W 006°22'510.6
2018-May-21 04:30N 48°14' W 006°19'510.7
2018-May-21 04:00N 48°18' W 006°15'510.1
2018-May-21 03:30N 48°23' W 006°11'510.5
2018-May-21 03:00N 48°27' W 006°07'610.8
2018-May-21 02:30N 48°32' W 006°03'611.1
2018-May-21 02:00N 48°37' W 005°60'611.2
2018-May-21 01:30N 48°42' W 005°56'611.3
2018-May-21 01:00N 48°47' W 005°51'611.2
2018-May-21 00:30N 48°52' W 005°47'510.6
2018-May-21 00:00N 48°55' W 005°40'510.5
2018-May-20 23:30N 48°57' W 005°33'710.1
2018-May-20 22:46N 49°01' W 005°23'3 9.6
2018-May-20 22:27N 49°02' W 005°20'4 9.5
2018-May-20 22:00N 49°05' W 005°14'5 9.2
2018-May-20 21:29N 49°07' W 005°08'4 8.7
2018-May-20 21:00N 49°09' W 005°02'4 8.7
2018-May-20 20:30N 49°11' W 004°56'4 8.7
2018-May-20 20:00N 49°13' W 004°51'4 8.3
2018-May-20 19:30N 49°16' W 004°45'4 8.5
2018-May-20 19:00N 49°18' W 004°39'5 9.6
2018-May-20 18:30N 49°20' W 004°33'510.4
2018-May-20 18:00N 49°23' W 004°26'510.8
2018-May-20 17:30N 49°26' W 004°19'611.2
2018-May-20 16:59N 49°29' W 004°11'611.7
2018-May-20 16:30N 49°31' W 004°04'1812.1
2018-May-20 14:59N 49°41' W 003°39'712.0
2018-May-20 14:26N 49°44' W 003°31'611.6
2018-May-20 13:53N 49°47' W 003°22'511.2
2018-May-20 13:27N 49°50' W 003°16'510.7
2018-May-20 13:00N 49°52' W 003°09'510.2
2018-May-20 12:30N 49°55' W 003°02'5 9.7
2018-May-20 12:00N 49°57' W 002°56'5 9.3
2018-May-20 11:30N 49°59' W 002°49'31 9.4
2018-May-20 08:11N 50°08' W 002°03'211.2
2018-May-20 08:00N 50°08' W 001°60'611.9
2018-May-20 07:31N 50°10' W 001°51'612.8
2018-May-20 07:00N 50°12' W 001°41'713.3
2018-May-20 06:31N 50°14' W 001°32'713.8
2018-May-20 06:00N 50°16' W 001°21'714.1
2018-May-20 05:29N 50°18' W 001°10'714.5
2018-May-20 05:01N 50°20' W 000°60'913.8
2018-May-20 04:22N 50°23' W 000°46'512.7
2018-May-20 04:01N 50°24' W 000°40'1012.4
2018-May-20 03:14N 50°27' W 000°25'311.7
2018-May-20 03:01N 50°28' W 000°21'611.3
2018-May-20 02:30N 50°29' W 000°13'510.8
2018-May-20 02:00N 50°31' W 000°05'510.0
2018-May-20 01:30N 50°32' E 000°03'5 9.4
2018-May-20 01:01N 50°34' E 000°10'4 8.9
2018-May-20 00:30N 50°35' E 000°17'4 8.5
2018-May-20 00:00N 50°36' E 000°23'4 8.6
2018-May-19 23:29N 50°38' E 000°30'4 9.1
2018-May-19 23:00N 50°39' E 000°36'510.0
2018-May-19 22:29N 50°42' E 000°43'511.0
2018-May-19 22:01N 50°45' E 000°49'611.8
2018-May-19 21:30N 50°49' E 000°57'1812.5
2018-May-19 20:03N 51°00' E 001°20'112.2
2018-May-19 20:00N 51°00' E 001°20'612.1
2018-May-19 19:30N 51°04' E 001°28'611.1
2018-May-19 19:01N 51°08' E 001°35'510.1
2018-May-19 18:31N 51°11' E 001°41'5 9.7
2018-May-19 18:00N 51°14' E 001°46'5 9.2
2018-May-19 17:31N 51°18' E 001°51'5 9.0
2018-May-19 17:01N 51°22' E 001°55'4 8.6
2018-May-19 16:30N 51°25' E 001°59'4 8.7
2018-May-19 16:00N 51°29' E 002°03'5 9.0
2018-May-19 15:29N 51°32' E 002°08'5 9.3
2018-May-19 15:00N 51°36' E 002°12'5 9.8
2018-May-19 14:29N 51°40' E 002°17'510.4
2018-May-19 14:00N 51°44' E 002°22'611.0
2018-May-19 13:26N 51°48' E 002°29'5412.2
2018-May-19 08:59N 52°39' E 003°02'610.8
2018-May-19 08:28N 52°44' E 003°06'910.3
2018-May-19 07:37N 52°52' E 003°12'385 8.8
2018-May-17 11:57N 57°54' E 010°12'4 8.3
2018-May-17 11:30N 57°55' E 010°19'4 8.3
2018-May-17 11:00N 57°56' E 010°26'4 7.5
2018-May-17 10:31N 57°56' E 010°33'4 7.3
2018-May-17 10:01N 57°55' E 010°40'4 7.4
2018-May-17 09:30N 57°53' E 010°46'4 7.4
2018-May-17 09:00N 57°51' E 010°52'4 7.1
2018-May-17 08:31N 57°49' E 010°56'4 7.2
2018-May-17 08:00N 57°45' E 010°59'4 7.3
2018-May-17 07:30N 57°42' E 011°02'4 7.4
2018-May-17 07:01N 57°39' E 011°06'4 7.3
2018-May-17 06:30N 57°36' E 011°10'4 7.3
2018-May-17 06:01N 57°34' E 011°15'4 7.3
2018-May-17 05:30N 57°31' E 011°20'4 7.3
2018-May-17 05:01N 57°28' E 011°25'3 6.9
2018-May-17 04:30N 57°25' E 011°27'4 7.1
2018-May-17 04:01N 57°22' E 011°30'4 7.4
2018-May-17 03:30N 57°18' E 011°32'4 7.6
2018-May-17 03:00N 57°15' E 011°34'4 7.7
2018-May-17 02:31N 57°11' E 011°37'4 7.9
2018-May-17 02:00N 57°08' E 011°39'4 8.0
2018-May-17 01:30N 57°04' E 011°42'4 7.9
2018-May-17 01:01N 57°00' E 011°44'4 7.8
2018-May-17 00:30N 56°56' E 011°47'4 7.8
2018-May-17 00:01N 56°53' E 011°49'4 7.9
2018-May-16 23:31N 56°49' E 011°51'4 7.8
2018-May-16 23:00N 56°45' E 011°54'4 7.9
2018-May-16 22:30N 56°41' E 011°56'4 7.9
2018-May-16 22:00N 56°38' E 011°57'4 8.0
2018-May-16 21:31N 56°34' E 011°59'4 8.0
2018-May-16 21:01N 56°30' E 012°00'4 8.0
2018-May-16 20:30N 56°26' E 012°02'4 7.5
2018-May-16 20:00N 56°22' E 012°03'3 7.0
2018-May-16 19:31N 56°19' E 012°05'4 6.7
2018-May-16 18:55N 56°16' E 012°10'5 7.1
2018-May-16 18:16N 56°14' E 012°17'2 7.4
2018-May-16 18:01N 56°13' E 012°20'7 7.2
2018-May-16 17:05N 56°09' E 012°30'1 7.5
2018-May-16 17:00N 56°08' E 012°30'4 7.5
2018-May-16 16:31N 56°06' E 012°35'4 7.7
2018-May-16 16:00N 56°03' E 012°39'5 9.1
2018-May-16 15:30N 55°59' E 012°42'4 9.0
2018-May-16 15:01N 55°54' E 012°45'5 9.1
2018-May-16 14:30N 55°50' E 012°45'5 9.6
2018-May-16 14:01N 55°45' E 012°42'5 9.3
2018-May-16 13:31N 55°41' E 012°41'4 8.7
2018-May-16 13:01N 55°36' E 012°42'5 9.2
2018-May-16 12:30N 55°32' E 012°43'5 9.7
2018-May-16 12:01N 55°27' E 012°42'5 9.9
2018-May-16 11:31N 55°22' E 012°40'4 8.9
2018-May-16 11:00N 55°18' E 012°44'5 9.9
2018-May-16 10:28N 55°16' E 012°52'3910.1
2018-May-16 06:34N 55°14' E 014°01'110.2
2018-May-16 06:29N 55°14' E 014°03'510.2
2018-May-16 06:00N 55°14' E 014°11'5 9.3
2018-May-16 05:31N 55°16' E 014°19'510.3
2018-May-16 05:00N 55°20' E 014°24'510.3
2018-May-16 04:30N 55°24' E 014°30'510.3
2018-May-16 04:00N 55°27' E 014°37'510.2
2018-May-16 03:30N 55°30' E 014°44'510.1
2018-May-16 03:00N 55°33' E 014°52'510.3
2018-May-16 02:30N 55°35' E 014°60'510.3
2018-May-16 02:00N 55°38' E 015°08'510.1
2018-May-16 01:30N 55°40' E 015°16'610.1
2018-May-16 00:56N 55°43' E 015°25'510.3
2018-May-16 00:30N 55°45' E 015°32'510.3
2018-May-16 00:00N 55°48' E 015°39'710.2
2018-May-15 23:21N 55°51' E 015°50'410.2
2018-May-15 23:00N 55°53' E 015°55'710.2
2018-May-15 22:17N 55°56' E 016°07'310.1
2018-May-15 22:00N 55°58' E 016°11'510.1
2018-May-15 21:30N 56°00' E 016°19'30210.5
2018-May-14 16:39N 59°35' E 022°58'211.2
2018-May-14 16:31N 59°36' E 023°01'611.2
2018-May-14 16:00N 59°37' E 023°12'611.3
2018-May-14 15:31N 59°39' E 023°23'611.1
2018-May-14 15:00N 59°40' E 023°33'611.1
2018-May-14 14:31N 59°42' E 023°44'611.2
2018-May-14 13:59N 59°44' E 023°55'511.1
2018-May-14 13:30N 59°45' E 024°05'611.3
2018-May-14 13:00N 59°47' E 024°16'711.2
2018-May-14 12:25N 59°49' E 024°28'511.1
2018-May-14 12:00N 59°49' E 024°37'510.9
2018-May-14 11:31N 59°50' E 024°48'510.8
2018-May-14 11:00N 59°51' E 024°59'511.0
2018-May-14 10:31N 59°52' E 025°09'510.9
2018-May-14 10:01N 59°53' E 025°20'1110.7
2018-May-14 08:57N 59°55' E 025°42'610.9
2018-May-14 08:24N 59°57' E 025°53'710.8
2018-May-14 07:42N 59°59' E 026°08'313.6
2018-May-14 07:28N 59°60' E 026°14'5 9.8
2018-May-14 06:58N 60°00' E 026°24'510.9
2018-May-14 06:31N 60°01' E 026°34'510.9
2018-May-14 06:01N 60°01' E 026°45'611.0
2018-May-14 05:30N 59°60' E 026°56'510.2
2018-May-14 04:59N 60°01' E 027°06'510.8
2018-May-14 04:31N 60°03' E 027°15'610.9
2018-May-14 04:00N 60°06' E 027°25'511.0
2018-May-14 03:30N 60°09' E 027°34'611.0
2018-May-14 03:00N 60°12' E 027°43'510.7
2018-May-14 02:30N 60°11' E 027°54'611.0
2018-May-14 02:00N 60°10' E 028°05'610.9
2018-May-14 01:30N 60°08' E 028°16'511.0
2018-May-14 01:00N 60°05' E 028°24'510.8
2018-May-14 00:30N 60°03' E 028°34'611.1
2018-May-14 00:00N 60°03' E 028°45'611.0
2018-May-13 23:30N 60°03' E 028°57'611.3
2018-May-13 23:00N 60°02' E 029°08'611.5
2018-May-13 22:30N 60°02' E 029°19'5 8.8
2018-May-13 21:54N 60°02' E 029°30'410.9
2018-May-13 21:30N 60°00' E 029°38'510.3
2018-May-13 20:58N 59°58' E 029°48'5 9.9
2018-May-13 20:30N 59°56' E 029°57'5 9.7
2018-May-13 20:00N 59°54' E 030°05'3 6.8
2018-May-13 19:30N 59°53' E 030°12'1 1.2
2018-May-13 18:59N 59°54' E 030°13'0 0.0
2018-May-13 18:29N 59°54' E 030°13'0 0.0
2018-May-13 17:58N 59°54' E 030°13'0 0.0
2018-May-13 17:28N 59°54' E 030°13'0 0.0
2018-May-13 16:59N 59°54' E 030°13'0 0.0
2018-May-13 16:28N 59°54' E 030°13'0 0.0
2018-May-13 15:58N 59°54' E 030°13'0 0.0
2018-May-13 15:28N 59°54' E 030°13'0 0.0
2018-May-13 14:58N 59°54' E 030°13'0 0.0
2018-May-13 14:28N 59°54' E 030°13'0 0.0
2018-May-13 13:58N 59°54' E 030°13'0 0.0
2018-May-13 13:28N 59°54' E 030°13'0 0.0
2018-May-13 12:58N 59°54' E 030°13'0 0.0
2018-May-13 12:28N 59°54' E 030°13'0 0.0
2018-May-13 11:58N 59°54' E 030°13'0 0.0
2018-May-13 11:28N 59°54' E 030°13'0 0.0
2018-May-13 10:58N 59°54' E 030°13'0 0.0
2018-May-13 10:28N 59°54' E 030°13'0 0.0
2018-May-13 09:59N 59°54' E 030°13'0 0.0
2018-May-13 09:28N 59°54' E 030°13'0 0.0
2018-May-13 08:58N 59°54' E 030°13'0 0.0
2018-May-13 08:28N 59°54' E 030°13'0 0.0
2018-May-13 07:58N 59°54' E 030°13'0 0.0
2018-May-13 07:28N 59°54' E 030°13'0 0.0
2018-May-13 06:55N 59°54' E 030°13'0 0.0
2018-May-13 06:28N 59°54' E 030°13'0 0.0
2018-May-13 05:58N 59°54' E 030°13'0 0.0
2018-May-13 05:28N 59°54' E 030°13'0 0.0
2018-May-13 04:58N 59°54' E 030°13'0 0.0
2018-May-13 04:28N 59°54' E 030°13'0 0.0
2018-May-13 03:58N 59°54' E 030°13'0 0.0
2018-May-13 03:28N 59°54' E 030°13'0 0.0
2018-May-13 02:58N 59°54' E 030°13'0 0.0
2018-May-13 02:28N 59°54' E 030°13'0 0.0
2018-May-13 01:58N 59°54' E 030°13'0 0.0
2018-May-13 01:28N 59°54' E 030°13'0 0.0
2018-May-13 00:58N 59°54' E 030°13'0 0.0
2018-May-13 00:28N 59°54' E 030°13'0 0.0
2018-May-12 23:58N 59°54' E 030°13'0 0.0
2018-May-12 23:28N 59°54' E 030°13'0 0.0
2018-May-12 22:58N 59°54' E 030°13'0 0.0
2018-May-12 22:25N 59°54' E 030°13'0 0.0
2018-May-12 21:58N 59°54' E 030°13'0 0.0
2018-May-12 21:28N 59°54' E 030°13'0 0.0
2018-May-12 20:58N 59°54' E 030°13'0 0.0
2018-May-12 20:28N 59°54' E 030°13'0 0.0
2018-May-12 19:58N 59°54' E 030°13'0 0.0
2018-May-12 19:28N 59°54' E 030°13'0 0.0
2018-May-12 18:58N 59°54' E 030°13'0 0.0
2018-May-12 18:29N 59°54' E 030°13'0 0.0
2018-May-12 17:55N 59°54' E 030°13'0 0.0
2018-May-12 17:28N 59°54' E 030°13'0 0.0
2018-May-12 16:55N 59°54' E 030°13'0 0.0
2018-May-12 16:28N 59°54' E 030°13'0 0.0
2018-May-12 15:58N 59°54' E 030°13'0 0.0
2018-May-12 15:28N 59°54' E 030°13'0 0.0
2018-May-12 14:58N 59°54' E 030°13'0 0.0
2018-May-12 14:28N 59°54' E 030°13'0 0.0
2018-May-12 13:58N 59°54' E 030°13'0 0.0
2018-May-12 13:28N 59°54' E 030°13'0 0.0
2018-May-12 12:58N 59°54' E 030°13'0 0.0
2018-May-12 12:28N 59°54' E 030°13'0 0.0
2018-May-12 11:58N 59°54' E 030°13'0 0.0
2018-May-12 11:28N 59°54' E 030°13'0 0.0
2018-May-12 10:52N 59°54' E 030°13'0 0.0
2018-May-12 10:28N 59°54' E 030°13'0 0.0
2018-May-12 09:58N 59°54' E 030°13'0 0.0
2018-May-12 09:29N 59°54' E 030°13'0 0.0
2018-May-12 08:59N 59°54' E 030°13'0 0.0
2018-May-12 08:28N 59°54' E 030°13'0 0.0
2018-May-12 07:58N 59°54' E 030°13'0 0.0
2018-May-12 07:28N 59°54' E 030°13'0 0.0
2018-May-12 06:58N 59°54' E 030°13'0 0.0
2018-May-12 06:22N 59°54' E 030°13'0 0.0
2018-May-12 05:59N 59°54' E 030°13'0 0.0
2018-May-12 05:26N 59°54' E 030°13'0 0.0
2018-May-12 04:56N 59°54' E 030°13'0 0.0
2018-May-12 04:28N 59°54' E 030°13'0 0.0
2018-May-12 03:46N 59°54' E 030°13'0 0.0
2018-May-12 03:28N 59°54' E 030°13'0 0.0
2018-May-12 02:55N 59°54' E 030°13'0 0.0
2018-May-12 02:27N 59°54' E 030°13'0 0.0
2018-May-12 01:55N 59°54' E 030°13'0 0.0
2018-May-12 01:25N 59°54' E 030°13'0 0.0
2018-May-12 00:58N 59°54' E 030°13'0 0.0
2018-May-12 00:28N 59°54' E 030°13'0 0.0
2018-May-11 23:58N 59°54' E 030°13'0 0.0
2018-May-11 23:28N 59°54' E 030°13'0 0.0
2018-May-11 22:58N 59°54' E 030°13'0 0.0
2018-May-11 22:28N 59°54' E 030°13'0 0.0
2018-May-11 21:58N 59°54' E 030°13'0 0.0
2018-May-11 21:28N 59°54' E 030°13'0 0.0
2018-May-11 20:58N 59°54' E 030°13'0 0.0
2018-May-11 20:28N 59°54' E 030°13'0 0.0
2018-May-11 19:58N 59°54' E 030°13'0 0.0
2018-May-11 19:28N 59°54' E 030°13'0 0.0
2018-May-11 18:58N 59°54' E 030°13'0 0.0
2018-May-11 18:28N 59°54' E 030°13'0 0.0
2018-May-11 17:59N 59°54' E 030°13'0 0.0
2018-May-11 17:28N 59°54' E 030°13'0 0.0
2018-May-11 16:58N 59°54' E 030°13'0 0.0
2018-May-11 16:19N 59°54' E 030°13'0 0.0
2018-May-11 15:59N 59°54' E 030°13'0 0.0
2018-May-11 15:29N 59°54' E 030°13'0 0.0
2018-May-11 14:58N 59°54' E 030°13'0 0.0
2018-May-11 14:25N 59°54' E 030°13'0 0.0
2018-May-11 13:58N 59°54' E 030°13'0 0.0
2018-May-11 13:28N 59°54' E 030°13'0 0.0
2018-May-11 12:52N 59°54' E 030°13'0 0.0
2018-May-11 12:28N 59°54' E 030°13'  

Dump ship's entire track history